Time,TemperatureF,DewpointF,PressureIn,WindDirection,WindDirectionDegrees,WindSpeedMPH,WindSpeedGustMPH,Humidity,HourlyPrecipIn,Conditions,Clouds,dailyrainin,SoftwareType,DateUTC
2013-04-21 00:13:00,32.0,27.7,30.41,SSW,202,0.0,-999.0,84,-99.99,,,0.00,Acu-Link.com,2013-04-21 04:13:00,
2013-04-21 00:28:00,32.0,27.1,30.42,South,180,0.0,-999.0,82,-99.99,,,0.00,Acu-Link.com,2013-04-21 04:28:00,
2013-04-21 00:43:00,32.0,27.1,30.43,SW,225,0.0,-999.0,82,-99.99,,,0.00,Acu-Link.com,2013-04-21 04:43:00,
2013-04-21 00:58:00,32.0,27.7,30.43,West,270,0.0,-999.0,84,-99.99,,,0.00,Acu-Link.com,2013-04-21 04:58:00,
2013-04-21 01:13:00,32.0,27.4,30.43,East,90,0.0,-999.0,83,-99.99,,,0.76,Acu-Link.com,2013-04-21 05:13:00,
2013-04-21 01:28:00,32.0,27.7,30.44,East,90,0.0,-999.0,84,-99.99,,,0.76,Acu-Link.com,2013-04-21 05:28:00,
2013-04-21 01:43:00,32.0,28.3,30.45,SSE,157,0.0,-999.0,86,-99.99,,,0.76,Acu-Link.com,2013-04-21 05:43:00,
2013-04-21 01:58:00,30.2,26.0,30.45,ESE,112,0.0,-999.0,84,-99.99,,,0.76,Acu-Link.com,2013-04-21 05:58:00,
2013-04-21 02:13:00,30.2,26.2,30.45,SE,135,0.0,-999.0,85,-99.99,,,0.76,Acu-Link.com,2013-04-21 06:13:00,
2013-04-21 02:28:00,30.2,26.5,30.46,WSW,247,0.0,-999.0,86,-99.99,,,0.76,Acu-Link.com,2013-04-21 06:28:00,
2013-04-21 02:43:00,30.2,26.8,30.46,NE,45,0.0,-999.0,87,-99.99,,,0.76,Acu-Link.com,2013-04-21 06:43:00,
2013-04-21 02:58:00,28.4,24.8,30.46,NNW,337,0.0,-999.0,86,-99.99,,,0.76,Acu-Link.com,2013-04-21 06:58:00,
2013-04-21 03:13:00,28.4,25.0,30.46,North,0,0.0,-999.0,87,-99.99,,,0.76,Acu-Link.com,2013-04-21 07:13:00,
2013-04-21 03:29:00,28.4,25.0,30.47,ESE,112,0.0,-999.0,87,-99.99,,,0.76,Acu-Link.com,2013-04-21 07:29:00,
2013-04-21 03:44:00,28.4,25.6,30.47,SSW,202,0.0,-999.0,89,-99.99,,,0.76,Acu-Link.com,2013-04-21 07:44:00,
2013-04-21 03:59:00,28.4,25.6,30.47,NE,45,0.0,-999.0,89,-99.99,,,0.76,Acu-Link.com,2013-04-21 07:59:00,
2013-04-21 04:14:00,28.4,25.6,30.48,NW,315,0.0,-999.0,89,-99.99,,,0.76,Acu-Link.com,2013-04-21 08:14:00,
2013-04-21 04:29:00,28.4,26.4,30.48,NNE,22,0.0,-999.0,92,-99.99,,,0.76,Acu-Link.com,2013-04-21 08:29:00,
2013-04-21 04:44:00,26.6,24.3,30.49,NNW,337,0.0,-999.0,91,-99.99,,,0.76,Acu-Link.com,2013-04-21 08:44:00,
2013-04-21 04:59:00,26.6,24.3,30.49,WSW,247,0.0,-999.0,91,-99.99,,,0.76,Acu-Link.com,2013-04-21 08:59:00,
2013-04-21 05:14:00,26.6,24.1,30.50,NNE,22,0.0,-999.0,90,-99.99,,,0.76,Acu-Link.com,2013-04-21 09:14:00,
2013-04-21 05:29:00,26.6,24.1,30.50,ESE,112,0.0,-999.0,90,-99.99,,,0.76,Acu-Link.com,2013-04-21 09:29:00,
2013-04-21 05:44:00,26.6,24.3,30.50,ENE,67,0.0,-999.0,91,-99.99,,,0.76,Acu-Link.com,2013-04-21 09:44:00,
2013-04-21 05:59:00,26.6,24.3,30.51,SW,225,0.0,-999.0,91,-99.99,,,0.76,Acu-Link.com,2013-04-21 09:59:00,
2013-04-21 06:14:00,26.6,24.3,30.52,West,270,0.0,-999.0,91,-99.99,,,0.76,Acu-Link.com,2013-04-21 10:14:00,
2013-04-21 06:29:00,26.6,24.3,30.53,WSW,247,0.0,-999.0,91,-99.99,,,0.76,Acu-Link.com,2013-04-21 10:29:00,
2013-04-21 06:44:00,26.6,24.3,30.53,West,270,0.0,-999.0,91,-99.99,,,0.76,Acu-Link.com,2013-04-21 10:44:00,
2013-04-21 06:59:00,26.6,25.4,30.53,West,270,0.0,-999.0,95,-99.99,,,1.52,Acu-Link.com,2013-04-21 10:59:00,
2013-04-21 07:14:00,26.6,25.4,30.55,East,90,0.0,-999.0,95,-99.99,,,2.28,Acu-Link.com,2013-04-21 11:14:00,
2013-04-21 07:29:00,26.6,25.4,30.56,NNE,22,0.0,-999.0,95,-99.99,,,2.28,Acu-Link.com,2013-04-21 11:29:00,
2013-04-21 07:44:00,28.4,27.2,30.57,West,270,0.0,-999.0,95,-99.99,,,2.28,Acu-Link.com,2013-04-21 11:44:00,
2013-04-21 07:59:00,28.4,27.2,30.57,South,180,0.0,-999.0,95,-99.99,,,2.28,Acu-Link.com,2013-04-21 11:59:00,
2013-04-21 08:14:00,30.2,28.9,30.59,ENE,67,2.7,-999.0,95,-99.99,,,2.28,Acu-Link.com,2013-04-21 12:14:00,
2013-04-21 08:29:00,32.0,28.0,30.59,SE,135,3.1,-999.0,85,-99.99,,,2.28,Acu-Link.com,2013-04-21 12:29:00,
2013-04-21 08:45:00,33.8,28.3,30.59,ESE,112,3.1,-999.0,80,-99.99,,,2.28,Acu-Link.com,2013-04-21 12:45:00,
2013-04-21 09:00:00,35.6,27.5,30.59,SW,225,2.0,-999.0,72,-99.99,,,2.28,Acu-Link.com,2013-04-21 13:00:00,
2013-04-21 09:15:00,41.0,28.2,30.60,ESE,112,3.1,-999.0,60,-99.99,,,2.28,Acu-Link.com,2013-04-21 13:15:00,
2013-04-21 09:30:00,37.4,26.7,30.60,SW,225,4.0,-999.0,65,-99.99,,,2.28,Acu-Link.com,2013-04-21 13:30:00,
2013-04-21 09:45:00,41.0,29.0,30.60,SW,225,1.1,-999.0,62,-99.99,,,2.28,Acu-Link.com,2013-04-21 13:45:00,
2013-04-21 10:01:00,41.0,28.6,30.60,SSE,157,4.0,-999.0,61,-99.99,,,2.28,Acu-Link.com,2013-04-21 14:01:00,
2013-04-21 10:16:00,41.0,26.9,30.60,ESE,112,3.1,-999.0,57,-99.99,,,2.28,Acu-Link.com,2013-04-21 14:16:00,
2013-04-21 10:31:00,42.8,27.8,30.60,West,270,2.7,-999.0,55,-99.99,,,2.28,Acu-Link.com,2013-04-21 14:31:00,
2013-04-21 10:46:00,42.8,27.3,30.61,ESE,112,3.1,-999.0,54,-99.99,,,2.28,Acu-Link.com,2013-04-21 14:46:00,
2013-04-21 11:01:00,42.8,26.9,30.61,South,180,0.0,-999.0,53,-99.99,,,2.28,Acu-Link.com,2013-04-21 15:01:00,
2013-04-21 11:16:00,44.6,28.5,30.60,East,90,3.6,-999.0,53,-99.99,,,2.28,Acu-Link.com,2013-04-21 15:16:00,
2013-04-21 11:32:00,44.6,27.1,30.60,East,90,5.6,-999.0,50,-99.99,,,2.28,Acu-Link.com,2013-04-21 15:32:00,
2013-04-21 11:47:00,44.6,26.6,30.60,SSW,202,2.0,-999.0,49,-99.99,,,2.28,Acu-Link.com,2013-04-21 15:47:00,
2013-04-21 12:02:00,44.6,25.6,30.60,SSE,157,4.7,-999.0,47,-99.99,,,2.28,Acu-Link.com,2013-04-21 16:02:00,
2013-04-21 12:17:00,44.6,25.6,30.60,NNE,22,2.7,-999.0,47,-99.99,,,2.28,Acu-Link.com,2013-04-21 16:17:00,
2013-04-21 12:32:00,46.4,28.3,30.59,WNW,292,6.3,-999.0,49,-99.99,,,2.28,Acu-Link.com,2013-04-21 16:32:00,
2013-04-21 12:47:00,46.4,26.8,30.59,SSE,157,4.0,-999.0,46,-99.99,,,2.28,Acu-Link.com,2013-04-21 16:47:00,
2013-04-21 13:02:00,46.4,27.3,30.58,North,0,3.1,-999.0,47,-99.99,,,2.28,Acu-Link.com,2013-04-21 17:02:00,
2013-04-21 13:17:00,48.2,27.3,30.57,ESE,112,3.1,-999.0,44,-99.99,,,2.28,Acu-Link.com,2013-04-21 17:17:00,
2013-04-21 13:32:00,46.4,25.7,30.57,NNE,22,3.1,-999.0,44,-99.99,,,2.28,Acu-Link.com,2013-04-21 17:32:00,
2013-04-21 13:47:00,48.2,27.9,30.56,NE,45,5.1,-999.0,45,-99.99,,,2.28,Acu-Link.com,2013-04-21 17:47:00,
2013-04-21 14:02:00,50.0,31.6,30.55,SW,225,3.6,-999.0,49,-99.99,,,2.28,Acu-Link.com,2013-04-21 18:02:00,
2013-04-21 14:17:00,48.2,31.9,30.55,NW,315,2.7,-999.0,53,-99.99,,,2.28,Acu-Link.com,2013-04-21 18:17:00,
2013-04-21 14:33:00,48.2,31.4,30.55,ENE,67,2.0,-999.0,52,-99.99,,,2.28,Acu-Link.com,2013-04-21 18:33:00,
2013-04-21 14:48:00,46.4,31.6,30.55,NW,315,3.1,-999.0,56,-99.99,,,2.28,Acu-Link.com,2013-04-21 18:48:00,
2013-04-21 15:03:00,46.4,32.4,30.53,WNW,292,4.7,-999.0,58,-99.99,,,2.28,Acu-Link.com,2013-04-21 19:03:00,
2013-04-21 15:18:00,46.4,32.9,30.53,NNW,337,3.6,-999.0,59,-99.99,,,2.28,Acu-Link.com,2013-04-21 19:18:00,
2013-04-21 15:33:00,46.4,32.4,30.52,NNE,22,2.7,-999.0,58,-99.99,,,2.28,Acu-Link.com,2013-04-21 19:33:00,
2013-04-21 15:49:00,46.4,33.7,30.52,WNW,292,4.0,-999.0,61,-99.99,,,2.28,Acu-Link.com,2013-04-21 19:49:00,
2013-04-21 16:04:00,44.6,31.6,30.50,WNW,292,4.7,-999.0,60,-99.99,,,2.28,Acu-Link.com,2013-04-21 20:04:00,
2013-04-21 16:19:00,44.6,31.2,30.50,West,270,3.6,-999.0,59,-99.99,,,2.28,Acu-Link.com,2013-04-21 20:19:00,
2013-04-21 16:35:00,44.6,33.2,30.50,NNW,337,3.1,-999.0,64,-99.99,,,2.28,Acu-Link.com,2013-04-21 20:35:00,
2013-04-21 16:50:00,42.8,30.7,30.50,WNW,292,4.7,-999.0,62,-99.99,,,2.28,Acu-Link.com,2013-04-21 20:50:00,
2013-04-21 17:05:00,42.8,30.7,30.50,East,90,4.7,-999.0,62,-99.99,,,2.28,Acu-Link.com,2013-04-21 21:05:00,
2013-04-21 17:20:00,44.6,31.2,30.49,SE,135,3.1,-999.0,59,-99.99,,,2.28,Acu-Link.com,2013-04-21 21:20:00,
2013-04-21 17:35:00,44.6,29.9,30.49,NNW,337,3.1,-999.0,56,-99.99,,,2.28,Acu-Link.com,2013-04-21 21:35:00,
2013-04-21 17:50:00,46.4,31.1,30.49,North,0,1.6,-999.0,55,-99.99,,,2.28,Acu-Link.com,2013-04-21 21:50:00,
2013-04-21 18:06:00,46.4,31.6,30.49,NW,315,3.6,-999.0,56,-99.99,,,2.28,Acu-Link.com,2013-04-21 22:06:00,
2013-04-21 18:21:00,46.4,32.4,30.49,ENE,67,3.1,-999.0,58,-99.99,,,2.28,Acu-Link.com,2013-04-21 22:21:00,
2013-04-21 18:36:00,46.4,31.1,30.49,WNW,292,3.6,-999.0,55,-99.99,,,2.28,Acu-Link.com,2013-04-21 22:36:00,
2013-04-21 18:51:00,44.6,31.2,30.48,West,270,3.1,-999.0,59,-99.99,,,2.28,Acu-Link.com,2013-04-21 22:51:00,
2013-04-21 19:06:00,44.6,32.0,30.48,SW,225,1.1,-999.0,61,-99.99,,,2.28,Acu-Link.com,2013-04-21 23:06:00,
2013-04-21 19:21:00,42.8,30.3,30.49,East,90,1.6,-999.0,61,-99.99,,,2.28,Acu-Link.com,2013-04-21 23:21:00,
2013-04-21 19:36:00,42.8,30.3,30.48,NW,315,2.0,-999.0,61,-99.99,,,2.28,Acu-Link.com,2013-04-21 23:36:00,
2013-04-21 19:51:00,41.0,30.2,30.49,NW,315,0.0,-999.0,65,-99.99,,,2.28,Acu-Link.com,2013-04-21 23:51:00,
2013-04-21 20:06:00,39.2,29.5,30.49,WNW,292,0.0,-999.0,68,-99.99,,,2.28,Acu-Link.com,2013-04-22 00:06:00,
2013-04-21 20:21:00,37.4,27.8,30.48,NE,45,0.0,-999.0,68,-99.99,,,2.28,Acu-Link.com,2013-04-22 00:21:00,
2013-04-21 20:36:00,37.4,28.5,30.48,NE,45,0.0,-999.0,70,-99.99,,,2.28,Acu-Link.com,2013-04-22 00:36:00,
2013-04-21 20:51:00,35.6,28.1,30.48,WSW,247,0.0,-999.0,74,-99.99,,,2.28,Acu-Link.com,2013-04-22 00:51:00,
2013-04-21 21:06:00,35.6,28.8,30.48,East,90,0.0,-999.0,76,-99.99,,,2.28,Acu-Link.com,2013-04-22 01:06:00,
2013-04-21 21:22:00,35.6,29.1,30.48,SW,225,0.0,-999.0,77,-99.99,,,2.28,Acu-Link.com,2013-04-22 01:22:00,
2013-04-21 21:37:00,35.6,29.4,30.48,West,270,0.0,-999.0,78,-99.99,,,2.28,Acu-Link.com,2013-04-22 01:37:00,
2013-04-21 21:52:00,35.6,29.4,30.48,NW,315,0.0,-999.0,78,-99.99,,,2.28,Acu-Link.com,2013-04-22 01:52:00,
2013-04-21 22:07:00,35.6,29.4,30.49,NW,315,0.0,-999.0,78,-99.99,,,2.28,Acu-Link.com,2013-04-22 02:07:00,
2013-04-21 22:22:00,35.6,29.4,30.49,NW,315,0.0,-999.0,78,-99.99,,,2.28,Acu-Link.com,2013-04-22 02:22:00,
2013-04-21 22:37:00,35.6,28.8,30.48,WNW,292,0.0,-999.0,76,-99.99,,,2.28,Acu-Link.com,2013-04-22 02:37:00,
2013-04-21 22:52:00,33.8,27.1,30.48,SW,225,0.0,-999.0,76,-99.99,,,2.28,Acu-Link.com,2013-04-22 02:52:00,
2013-04-21 23:07:00,33.8,27.4,30.48,SSE,157,0.0,-999.0,77,-99.99,,,2.28,Acu-Link.com,2013-04-22 03:07:00,
2013-04-21 23:22:00,33.8,27.4,30.48,NE,45,0.0,-999.0,77,-99.99,,,2.28,Acu-Link.com,2013-04-22 03:22:00,
2013-04-21 23:37:00,33.8,27.7,30.47,NW,315,0.0,-999.0,78,-99.99,,,2.28,Acu-Link.com,2013-04-22 03:37:00,
2013-04-21 23:52:00,33.8,27.7,30.46,NW,315,0.0,-999.0,78,-99.99,,,2.28,Acu-Link.com,2013-04-22 03:52:00,